sensor_id;sensor_type;location;lat;lon;timestamp;P1;durP1;ratioP1;P2;durP2;ratioP2
1811;SDS011;904;47.814;11.134;2024-02-26T00:00:42;7.30;;;3.75;;
1811;SDS011;904;47.814;11.134;2024-02-26T00:03:11;5.55;;;3.35;;
1811;SDS011;904;47.814;11.134;2024-02-26T00:05:40;3.85;;;2.35;;
1811;SDS011;904;47.814;11.134;2024-02-26T00:08:07;8.25;;;3.65;;
1811;SDS011;904;47.814;11.134;2024-02-26T00:10:34;8.50;;;3.70;;
1811;SDS011;904;47.814;11.134;2024-02-26T00:13:01;4.75;;;3.17;;
1811;SDS011;904;47.814;11.134;2024-02-26T00:15:29;5.32;;;3.90;;
1811;SDS011;904;47.814;11.134;2024-02-26T00:17:57;7.53;;;4.50;;
1811;SDS011;904;47.814;11.134;2024-02-26T00:20:24;5.88;;;3.97;;
1811;SDS011;904;47.814;11.134;2024-02-26T00:22:51;8.50;;;4.10;;
1811;SDS011;904;47.814;11.134;2024-02-26T00:25:18;7.93;;;4.55;;
1811;SDS011;904;47.814;11.134;2024-02-26T00:27:45;6.65;;;3.97;;
1811;SDS011;904;47.814;11.134;2024-02-26T00:30:12;6.25;;;4.13;;
1811;SDS011;904;47.814;11.134;2024-02-26T00:32:40;8.23;;;3.80;;
1811;SDS011;904;47.814;11.134;2024-02-26T00:35:08;6.72;;;4.10;;
1811;SDS011;904;47.814;11.134;2024-02-26T00:37:35;6.70;;;4.65;;
1811;SDS011;904;47.814;11.134;2024-02-26T00:40:03;7.53;;;4.43;;
1811;SDS011;904;47.814;11.134;2024-02-26T00:42:31;6.40;;;3.80;;
1811;SDS011;904;47.814;11.134;2024-02-26T00:44:58;7.15;;;4.15;;
1811;SDS011;904;47.814;11.134;2024-02-26T00:47:25;7.32;;;4.10;;
1811;SDS011;904;47.814;11.134;2024-02-26T00:49:52;5.22;;;3.92;;
1811;SDS011;904;47.814;11.134;2024-02-26T00:52:21;7.45;;;4.45;;
1811;SDS011;904;47.814;11.134;2024-02-26T00:54:48;7.90;;;4.03;;
1811;SDS011;904;47.814;11.134;2024-02-26T00:57:15;6.75;;;3.88;;
1811;SDS011;904;47.814;11.134;2024-02-26T00:59:42;7.78;;;3.20;;
1811;SDS011;904;47.814;11.134;2024-02-26T01:02:09;10.00;;;3.78;;
1811;SDS011;904;47.814;11.134;2024-02-26T01:04:36;7.07;;;4.30;;
1811;SDS011;904;47.814;11.134;2024-02-26T01:07:03;6.20;;;4.07;;
1811;SDS011;904;47.814;11.134;2024-02-26T01:09:32;7.55;;;4.13;;
1811;SDS011;904;47.814;11.134;2024-02-26T01:11:59;7.40;;;3.97;;
1811;SDS011;904;47.814;11.134;2024-02-26T01:14:27;5.68;;;3.60;;
1811;SDS011;904;47.814;11.134;2024-02-26T01:16:54;7.38;;;3.58;;
1811;SDS011;904;47.814;11.134;2024-02-26T01:19:21;7.30;;;4.25;;
1811;SDS011;904;47.814;11.134;2024-02-26T01:21:48;4.97;;;3.45;;
1811;SDS011;904;47.814;11.134;2024-02-26T01:24:15;6.47;;;3.90;;
1811;SDS011;904;47.814;11.134;2024-02-26T01:26:44;5.30;;;3.15;;
1811;SDS011;904;47.814;11.134;2024-02-26T01:29:11;7.05;;;3.00;;
1811;SDS011;904;47.814;11.134;2024-02-26T01:31:38;4.78;;;3.47;;
1811;SDS011;904;47.814;11.134;2024-02-26T01:34:05;5.40;;;3.33;;
1811;SDS011;904;47.814;11.134;2024-02-26T01:36:32;5.55;;;3.30;;
1811;SDS011;904;47.814;11.134;2024-02-26T01:38:59;7.57;;;3.03;;
1811;SDS011;904;47.814;11.134;2024-02-26T01:41:28;4.90;;;2.55;;
1811;SDS011;904;47.814;11.134;2024-02-26T01:43:57;4.45;;;3.08;;
1811;SDS011;904;47.814;11.134;2024-02-26T01:46:24;4.25;;;2.88;;
1811;SDS011;904;47.814;11.134;2024-02-26T01:48:51;4.03;;;2.35;;
1811;SDS011;904;47.814;11.134;2024-02-26T01:51:18;4.72;;;2.95;;
1811;SDS011;904;47.814;11.134;2024-02-26T01:53:47;5.95;;;4.07;;
1811;SDS011;904;47.814;11.134;2024-02-26T01:56:14;5.15;;;2.83;;
1811;SDS011;904;47.814;11.134;2024-02-26T01:58:43;6.85;;;3.58;;
1811;SDS011;904;47.814;11.134;2024-02-26T02:01:11;5.50;;;2.60;;
1811;SDS011;904;47.814;11.134;2024-02-26T02:03:39;5.03;;;2.88;;
1811;SDS011;904;47.814;11.134;2024-02-26T02:06:06;4.88;;;2.80;;
1811;SDS011;904;47.814;11.134;2024-02-26T02:08:35;4.40;;;2.42;;
1811;SDS011;904;47.814;11.134;2024-02-26T02:11:04;5.40;;;2.60;;
1811;SDS011;904;47.814;11.134;2024-02-26T02:13:31;4.40;;;2.42;;
1811;SDS011;904;47.814;11.134;2024-02-26T02:15:58;5.30;;;2.35;;
1811;SDS011;904;47.814;11.134;2024-02-26T02:18:26;4.18;;;1.95;;
1811;SDS011;904;47.814;11.134;2024-02-26T02:20:55;3.88;;;2.25;;
1811;SDS011;904;47.814;11.134;2024-02-26T02:23:24;3.90;;;2.20;;
1811;SDS011;904;47.814;11.134;2024-02-26T02:25:52;4.40;;;2.80;;
1811;SDS011;904;47.814;11.134;2024-02-26T02:28:20;7.90;;;2.22;;
1811;SDS011;904;47.814;11.134;2024-02-26T02:30:47;3.20;;;1.70;;
1811;SDS011;904;47.814;11.134;2024-02-26T02:33:15;3.85;;;2.25;;
1811;SDS011;904;47.814;11.134;2024-02-26T02:35:42;5.90;;;2.25;;
1811;SDS011;904;47.814;11.134;2024-02-26T02:38:12;4.18;;;2.00;;
1811;SDS011;904;47.814;11.134;2024-02-26T02:40:39;5.30;;;2.67;;
1811;SDS011;904;47.814;11.134;2024-02-26T02:43:06;3.25;;;2.20;;
1811;SDS011;904;47.814;11.134;2024-02-26T02:45:33;3.78;;;1.90;;
1811;SDS011;904;47.814;11.134;2024-02-26T02:48:00;4.57;;;1.90;;
1811;SDS011;904;47.814;11.134;2024-02-26T02:50:27;2.53;;;1.40;;
1811;SDS011;904;47.814;11.134;2024-02-26T02:52:54;4.43;;;2.40;;
1811;SDS011;904;47.814;11.134;2024-02-26T02:55:23;4.05;;;2.42;;
1811;SDS011;904;47.814;11.134;2024-02-26T02:57:50;3.28;;;1.80;;
1811;SDS011;904;47.814;11.134;2024-02-26T03:00:17;4.47;;;2.17;;
1811;SDS011;904;47.814;11.134;2024-02-26T03:02:44;3.75;;;2.25;;
1811;SDS011;904;47.814;11.134;2024-02-26T03:05:11;3.33;;;1.80;;
1811;SDS011;904;47.814;11.134;2024-02-26T03:07:38;3.83;;;2.00;;
1811;SDS011;904;47.814;11.134;2024-02-26T03:10:06;7.97;;;1.77;;
1811;SDS011;904;47.814;11.134;2024-02-26T03:12:34;4.72;;;1.88;;
1811;SDS011;904;47.814;11.134;2024-02-26T03:15:01;6.43;;;1.95;;
1811;SDS011;904;47.814;11.134;2024-02-26T03:17:29;2.97;;;1.35;;
1811;SDS011;904;47.814;11.134;2024-02-26T03:19:56;2.50;;;1.40;;
1811;SDS011;904;47.814;11.134;2024-02-26T03:22:23;2.55;;;1.60;;
1811;SDS011;904;47.814;11.134;2024-02-26T03:24:50;3.38;;;2.00;;
1811;SDS011;904;47.814;11.134;2024-02-26T03:27:17;4.25;;;2.40;;
1811;SDS011;904;47.814;11.134;2024-02-26T03:29:46;2.63;;;1.25;;
1811;SDS011;904;47.814;11.134;2024-02-26T03:32:13;3.05;;;1.60;;
1811;SDS011;904;47.814;11.134;2024-02-26T03:34:40;3.50;;;1.70;;
1811;SDS011;904;47.814;11.134;2024-02-26T03:37:07;2.50;;;1.27;;
1811;SDS011;904;47.814;11.134;2024-02-26T03:39:35;3.33;;;1.50;;
1811;SDS011;904;47.814;11.134;2024-02-26T03:42:03;3.95;;;1.50;;
1811;SDS011;904;47.814;11.134;2024-02-26T03:44:30;3.00;;;1.88;;
1811;SDS011;904;47.814;11.134;2024-02-26T03:46:59;3.60;;;2.22;;
1811;SDS011;904;47.814;11.134;2024-02-26T03:49:26;3.00;;;1.55;;
1811;SDS011;904;47.814;11.134;2024-02-26T03:51:53;3.45;;;1.55;;
1811;SDS011;904;47.814;11.134;2024-02-26T03:54:19;2.53;;;1.33;;
1811;SDS011;904;47.814;11.134;2024-02-26T03:56:47;2.60;;;1.42;;
1811;SDS011;904;47.814;11.134;2024-02-26T03:59:14;3.83;;;1.80;;
1811;SDS011;904;47.814;11.134;2024-02-26T04:01:44;4.88;;;1.95;;
1811;SDS011;904;47.814;11.134;2024-02-26T04:04:14;3.10;;;1.48;;
1811;SDS011;904;47.814;11.134;2024-02-26T04:06:43;3.72;;;1.85;;
1811;SDS011;904;47.814;11.134;2024-02-26T04:09:11;3.35;;;1.80;;
1811;SDS011;904;47.814;11.134;2024-02-26T04:11:39;2.83;;;1.50;;
1811;SDS011;904;47.814;11.134;2024-02-26T04:14:06;2.95;;;1.30;;
1811;SDS011;904;47.814;11.134;2024-02-26T04:16:33;3.65;;;1.98;;
1811;SDS011;904;47.814;11.134;2024-02-26T04:19:00;2.88;;;1.65;;
1811;SDS011;904;47.814;11.134;2024-02-26T04:21:29;2.53;;;1.48;;
1811;SDS011;904;47.814;11.134;2024-02-26T04:23:56;3.45;;;2.13;;
1811;SDS011;904;47.814;11.134;2024-02-26T04:26:25;4.97;;;2.10;;
1811;SDS011;904;47.814;11.134;2024-02-26T04:28:53;5.32;;;2.97;;
1811;SDS011;904;47.814;11.134;2024-02-26T04:31:20;3.72;;;2.15;;
1811;SDS011;904;47.814;11.134;2024-02-26T04:33:46;3.30;;;2.20;;
1811;SDS011;904;47.814;11.134;2024-02-26T04:36:13;4.60;;;1.90;;
1811;SDS011;904;47.814;11.134;2024-02-26T04:38:42;3.90;;;2.20;;
1811;SDS011;904;47.814;11.134;2024-02-26T04:41:10;3.58;;;1.85;;
1811;SDS011;904;47.814;11.134;2024-02-26T04:43:37;3.13;;;1.85;;
1811;SDS011;904;47.814;11.134;2024-02-26T04:46:06;4.07;;;2.42;;
1811;SDS011;904;47.814;11.134;2024-02-26T04:48:34;6.57;;;3.72;;
1811;SDS011;904;47.814;11.134;2024-02-26T04:51:01;8.95;;;3.03;;
1811;SDS011;904;47.814;11.134;2024-02-26T04:53:29;6.10;;;3.22;;
1811;SDS011;904;47.814;11.134;2024-02-26T04:55:57;3.80;;;2.22;;
1811;SDS011;904;47.814;11.134;2024-02-26T04:58:24;3.15;;;2.00;;
1811;SDS011;904;47.814;11.134;2024-02-26T05:00:52;3.58;;;1.83;;
1811;SDS011;904;47.814;11.134;2024-02-26T05:03:19;4.68;;;2.38;;
1811;SDS011;904;47.814;11.134;2024-02-26T05:05:45;7.85;;;3.55;;
1811;SDS011;904;47.814;11.134;2024-02-26T05:08:13;5.63;;;2.80;;
1811;SDS011;904;47.814;11.134;2024-02-26T05:10:40;3.00;;;1.75;;
1811;SDS011;904;47.814;11.134;2024-02-26T05:13:09;4.70;;;1.60;;
1811;SDS011;904;47.814;11.134;2024-02-26T05:15:36;3.88;;;2.63;;
1811;SDS011;904;47.814;11.134;2024-02-26T05:18:03;7.90;;;4.63;;
1811;SDS011;904;47.814;11.134;2024-02-26T05:20:32;3.05;;;2.45;;
1811;SDS011;904;47.814;11.134;2024-02-26T05:23:01;4.95;;;2.55;;
1811;SDS011;904;47.814;11.134;2024-02-26T05:25:29;4.03;;;2.50;;
1811;SDS011;904;47.814;11.134;2024-02-26T05:27:57;3.75;;;1.90;;
1811;SDS011;904;47.814;11.134;2024-02-26T05:30:26;3.70;;;2.15;;
1811;SDS011;904;47.814;11.134;2024-02-26T05:32:54;3.17;;;1.67;;
1811;SDS011;904;47.814;11.134;2024-02-26T05:35:24;4.18;;;2.38;;
1811;SDS011;904;47.814;11.134;2024-02-26T05:37:53;3.65;;;1.90;;
1811;SDS011;904;47.814;11.134;2024-02-26T05:40:24;5.72;;;2.00;;
1811;SDS011;904;47.814;11.134;2024-02-26T05:42:52;6.30;;;2.40;;
1811;SDS011;904;47.814;11.134;2024-02-26T05:45:21;6.25;;;1.95;;
1811;SDS011;904;47.814;11.134;2024-02-26T05:47:50;4.30;;;2.35;;
1811;SDS011;904;47.814;11.134;2024-02-26T05:50:17;6.47;;;2.70;;
1811;SDS011;904;47.814;11.134;2024-02-26T05:52:44;3.53;;;1.85;;
1811;SDS011;904;47.814;11.134;2024-02-26T05:55:11;4.97;;;1.70;;
1811;SDS011;904;47.814;11.134;2024-02-26T05:57:39;5.13;;;1.33;;
1811;SDS011;904;47.814;11.134;2024-02-26T06:00:06;2.78;;;1.70;;
1811;SDS011;904;47.814;11.134;2024-02-26T06:02:34;4.82;;;1.60;;
1811;SDS011;904;47.814;11.134;2024-02-26T06:05:02;2.70;;;1.50;;
1811;SDS011;904;47.814;11.134;2024-02-26T06:07:32;4.00;;;1.77;;
1811;SDS011;904;47.814;11.134;2024-02-26T06:10:00;3.25;;;1.45;;
1811;SDS011;904;47.814;11.134;2024-02-26T06:12:27;3.03;;;1.35;;
1811;SDS011;904;47.814;11.134;2024-02-26T06:14:55;3.20;;;1.73;;
1811;SDS011;904;47.814;11.134;2024-02-26T06:17:23;2.85;;;1.50;;
1811;SDS011;904;47.814;11.134;2024-02-26T06:19:50;4.35;;;1.60;;
1811;SDS011;904;47.814;11.134;2024-02-26T06:22:18;4.20;;;1.80;;
1811;SDS011;904;47.814;11.134;2024-02-26T06:24:45;3.33;;;1.90;;
1811;SDS011;904;47.814;11.134;2024-02-26T06:27:12;2.55;;;1.05;;
1811;SDS011;904;47.814;11.134;2024-02-26T06:29:39;2.70;;;1.10;;
1811;SDS011;904;47.814;11.134;2024-02-26T06:32:06;3.67;;;1.70;;
1811;SDS011;904;47.814;11.134;2024-02-26T06:34:33;3.00;;;1.27;;
1811;SDS011;904;47.814;11.134;2024-02-26T06:37:00;3.47;;;1.45;;
1811;SDS011;904;47.814;11.134;2024-02-26T06:39:30;4.75;;;1.75;;
1811;SDS011;904;47.814;11.134;2024-02-26T06:41:57;3.03;;;1.80;;
1811;SDS011;904;47.814;11.134;2024-02-26T06:44:25;2.75;;;1.25;;
1811;SDS011;904;47.814;11.134;2024-02-26T06:46:56;3.65;;;1.48;;
1811;SDS011;904;47.814;11.134;2024-02-26T06:49:24;2.50;;;1.17;;
1811;SDS011;904;47.814;11.134;2024-02-26T06:51:51;4.45;;;1.92;;
1811;SDS011;904;47.814;11.134;2024-02-26T06:54:18;4.35;;;2.50;;
1811;SDS011;904;47.814;11.134;2024-02-26T06:56:47;3.55;;;2.47;;
1811;SDS011;904;47.814;11.134;2024-02-26T06:59:13;3.85;;;2.63;;
1811;SDS011;904;47.814;11.134;2024-02-26T07:01:41;5.13;;;1.63;;
1811;SDS011;904;47.814;11.134;2024-02-26T07:04:08;4.13;;;2.10;;
1811;SDS011;904;47.814;11.134;2024-02-26T07:06:36;3.22;;;2.33;;
1811;SDS011;904;47.814;11.134;2024-02-26T07:09:03;4.60;;;3.13;;
1811;SDS011;904;47.814;11.134;2024-02-26T07:11:30;3.88;;;2.90;;
1811;SDS011;904;47.814;11.134;2024-02-26T07:13:58;6.97;;;4.07;;
1811;SDS011;904;47.814;11.134;2024-02-26T07:16:26;5.90;;;4.43;;
1811;SDS011;904;47.814;11.134;2024-02-26T07:18:53;5.25;;;4.20;;
1811;SDS011;904;47.814;11.134;2024-02-26T07:21:20;7.10;;;2.72;;
1811;SDS011;904;47.814;11.134;2024-02-26T07:23:47;4.63;;;2.85;;
1811;SDS011;904;47.814;11.134;2024-02-26T07:26:14;6.43;;;3.55;;
1811;SDS011;904;47.814;11.134;2024-02-26T07:28:42;5.68;;;2.70;;
1811;SDS011;904;47.814;11.134;2024-02-26T07:31:10;5.53;;;3.22;;
1811;SDS011;904;47.814;11.134;2024-02-26T07:33:37;4.80;;;3.10;;
1811;SDS011;904;47.814;11.134;2024-02-26T07:36:05;5.88;;;2.80;;
1811;SDS011;904;47.814;11.134;2024-02-26T07:38:32;5.70;;;3.20;;
1811;SDS011;904;47.814;11.134;2024-02-26T07:40:59;5.15;;;3.13;;
1811;SDS011;904;47.814;11.134;2024-02-26T07:43:27;6.35;;;3.63;;
1811;SDS011;904;47.814;11.134;2024-02-26T07:45:54;6.75;;;2.92;;
1811;SDS011;904;47.814;11.134;2024-02-26T07:48:22;4.68;;;2.13;;
1811;SDS011;904;47.814;11.134;2024-02-26T07:50:49;3.75;;;2.13;;
1811;SDS011;904;47.814;11.134;2024-02-26T07:53:16;4.85;;;2.83;;
1811;SDS011;904;47.814;11.134;2024-02-26T07:55:43;2.95;;;2.10;;
1811;SDS011;904;47.814;11.134;2024-02-26T07:58:10;4.55;;;2.55;;
1811;SDS011;904;47.814;11.134;2024-02-26T08:00:37;4.93;;;2.20;;
1811;SDS011;904;47.814;11.134;2024-02-26T08:03:04;5.43;;;2.35;;
1811;SDS011;904;47.814;11.134;2024-02-26T08:05:32;6.30;;;3.40;;
1811;SDS011;904;47.814;11.134;2024-02-26T08:07:59;10.27;;;7.05;;
1811;SDS011;904;47.814;11.134;2024-02-26T08:10:27;7.70;;;4.47;;
1811;SDS011;904;47.814;11.134;2024-02-26T08:12:54;7.07;;;3.05;;
1811;SDS011;904;47.814;11.134;2024-02-26T08:15:22;6.85;;;3.40;;
1811;SDS011;904;47.814;11.134;2024-02-26T08:17:49;5.25;;;3.50;;
1811;SDS011;904;47.814;11.134;2024-02-26T08:20:16;4.40;;;3.03;;
1811;SDS011;904;47.814;11.134;2024-02-26T08:22:45;6.20;;;3.15;;
1811;SDS011;904;47.814;11.134;2024-02-26T08:25:12;4.88;;;3.30;;
1811;SDS011;904;47.814;11.134;2024-02-26T08:27:41;4.88;;;3.22;;
1811;SDS011;904;47.814;11.134;2024-02-26T08:30:08;4.28;;;2.92;;
1811;SDS011;904;47.814;11.134;2024-02-26T08:32:38;5.05;;;3.28;;
1811;SDS011;904;47.814;11.134;2024-02-26T08:35:05;5.47;;;3.78;;
1811;SDS011;904;47.814;11.134;2024-02-26T08:37:33;5.13;;;3.47;;
1811;SDS011;904;47.814;11.134;2024-02-26T08:40:01;6.55;;;3.33;;
1811;SDS011;904;47.814;11.134;2024-02-26T08:42:29;5.53;;;3.28;;
1811;SDS011;904;47.814;11.134;2024-02-26T08:44:56;4.60;;;3.00;;
1811;SDS011;904;47.814;11.134;2024-02-26T08:47:25;4.28;;;2.20;;
1811;SDS011;904;47.814;11.134;2024-02-26T08:49:53;5.18;;;2.75;;
1811;SDS011;904;47.814;11.134;2024-02-26T08:52:20;3.63;;;2.28;;
1811;SDS011;904;47.814;11.134;2024-02-26T08:54:48;3.10;;;1.90;;
1811;SDS011;904;47.814;11.134;2024-02-26T08:57:17;2.83;;;1.70;;
1811;SDS011;904;47.814;11.134;2024-02-26T08:59:44;6.07;;;1.63;;
1811;SDS011;904;47.814;11.134;2024-02-26T09:02:11;4.35;;;2.08;;
1811;SDS011;904;47.814;11.134;2024-02-26T09:04:38;3.30;;;1.92;;
1811;SDS011;904;47.814;11.134;2024-02-26T09:07:05;4.65;;;2.05;;
1811;SDS011;904;47.814;11.134;2024-02-26T09:09:32;4.85;;;1.70;;
1811;SDS011;904;47.814;11.134;2024-02-26T09:11:59;3.20;;;1.90;;
1811;SDS011;904;47.814;11.134;2024-02-26T09:14:27;3.55;;;2.17;;
1811;SDS011;904;47.814;11.134;2024-02-26T09:16:54;3.17;;;2.15;;
1811;SDS011;904;47.814;11.134;2024-02-26T09:19:21;4.55;;;2.50;;
1811;SDS011;904;47.814;11.134;2024-02-26T09:21:50;4.45;;;2.20;;
1811;SDS011;904;47.814;11.134;2024-02-26T09:24:18;3.78;;;1.95;;
1811;SDS011;904;47.814;11.134;2024-02-26T09:26:45;3.63;;;2.13;;
1811;SDS011;904;47.814;11.134;2024-02-26T09:29:12;3.20;;;1.90;;
1811;SDS011;904;47.814;11.134;2024-02-26T09:31:41;2.80;;;1.65;;
1811;SDS011;904;47.814;11.134;2024-02-26T09:34:08;3.25;;;1.80;;
1811;SDS011;904;47.814;11.134;2024-02-26T09:36:35;3.60;;;2.13;;
1811;SDS011;904;47.814;11.134;2024-02-26T09:39:02;4.15;;;1.90;;
1811;SDS011;904;47.814;11.134;2024-02-26T09:41:30;3.58;;;2.50;;
1811;SDS011;904;47.814;11.134;2024-02-26T09:43:57;3.35;;;2.33;;
1811;SDS011;904;47.814;11.134;2024-02-26T09:46:25;4.40;;;2.40;;
1811;SDS011;904;47.814;11.134;2024-02-26T09:48:53;4.10;;;2.45;;
1811;SDS011;904;47.814;11.134;2024-02-26T09:51:21;6.20;;;2.20;;
1811;SDS011;904;47.814;11.134;2024-02-26T09:53:50;2.95;;;2.10;;
1811;SDS011;904;47.814;11.134;2024-02-26T09:56:18;5.13;;;3.33;;
1811;SDS011;904;47.814;11.134;2024-02-26T09:58:45;4.35;;;2.58;;
1811;SDS011;904;47.814;11.134;2024-02-26T10:01:17;4.47;;;2.95;;
1811;SDS011;904;47.814;11.134;2024-02-26T10:03:47;6.28;;;2.75;;
1811;SDS011;904;47.814;11.134;2024-02-26T10:06:20;5.17;;;3.53;;
1811;SDS011;904;47.814;11.134;2024-02-26T10:08:47;6.10;;;2.70;;
1811;SDS011;904;47.814;11.134;2024-02-26T10:11:14;4.67;;;2.90;;
1811;SDS011;904;47.814;11.134;2024-02-26T10:13:42;7.93;;;2.77;;
1811;SDS011;904;47.814;11.134;2024-02-26T10:16:08;5.00;;;2.80;;
1811;SDS011;904;47.814;11.134;2024-02-26T10:18:44;10.53;;;3.50;;
1811;SDS011;904;47.814;11.134;2024-02-26T10:21:12;5.80;;;2.90;;
1811;SDS011;904;47.814;11.134;2024-02-26T10:23:44;4.17;;;2.60;;
1811;SDS011;904;47.814;11.134;2024-02-26T10:26:12;4.57;;;2.70;;
1811;SDS011;904;47.814;11.134;2024-02-26T10:28:41;6.83;;;2.57;;
1811;SDS011;904;47.814;11.134;2024-02-26T10:31:10;4.47;;;2.87;;
1811;SDS011;904;47.814;11.134;2024-02-26T10:33:38;5.73;;;3.10;;
1811;SDS011;904;47.814;11.134;2024-02-26T10:36:06;6.20;;;3.20;;
1811;SDS011;904;47.814;11.134;2024-02-26T10:38:34;6.57;;;3.90;;
1811;SDS011;904;47.814;11.134;2024-02-26T10:41:03;7.37;;;2.70;;
1811;SDS011;904;47.814;11.134;2024-02-26T10:43:32;4.10;;;3.10;;
1811;SDS011;904;47.814;11.134;2024-02-26T10:45:59;4.53;;;2.80;;
1811;SDS011;904;47.814;11.134;2024-02-26T10:48:26;5.80;;;3.37;;
1811;SDS011;904;47.814;11.134;2024-02-26T10:50:53;8.23;;;3.13;;
1811;SDS011;904;47.814;11.134;2024-02-26T10:53:22;5.67;;;2.70;;
1811;SDS011;904;47.814;11.134;2024-02-26T10:55:54;4.40;;;2.97;;
1811;SDS011;904;47.814;11.134;2024-02-26T10:58:25;8.63;;;3.33;;
1811;SDS011;904;47.814;11.134;2024-02-26T11:00:55;7.60;;;3.03;;
1811;SDS011;904;47.814;11.134;2024-02-26T11:03:23;5.97;;;3.00;;
1811;SDS011;904;47.814;11.134;2024-02-26T11:05:51;3.90;;;2.23;;
1811;SDS011;904;47.814;11.134;2024-02-26T11:08:19;3.47;;;2.30;;
1811;SDS011;904;47.814;11.134;2024-02-26T11:10:47;5.23;;;2.23;;
1811;SDS011;904;47.814;11.134;2024-02-26T11:13:16;3.73;;;2.37;;
1811;SDS011;904;47.814;11.134;2024-02-26T11:15:47;4.60;;;2.33;;
1811;SDS011;904;47.814;11.134;2024-02-26T11:18:16;5.43;;;2.30;;
1811;SDS011;904;47.814;11.134;2024-02-26T11:20:44;3.40;;;1.93;;
1811;SDS011;904;47.814;11.134;2024-02-26T11:23:14;6.03;;;2.33;;
1811;SDS011;904;47.814;11.134;2024-02-26T11:25:41;3.60;;;2.20;;
1811;SDS011;904;47.814;11.134;2024-02-26T11:28:09;5.87;;;2.73;;
1811;SDS011;904;47.814;11.134;2024-02-26T11:30:39;5.70;;;2.60;;
1811;SDS011;904;47.814;11.134;2024-02-26T11:33:12;3.07;;;1.80;;
1811;SDS011;904;47.814;11.134;2024-02-26T11:35:40;4.07;;;1.80;;
1811;SDS011;904;47.814;11.134;2024-02-26T11:38:07;5.53;;;2.40;;
1811;SDS011;904;47.814;11.134;2024-02-26T11:40:37;3.20;;;1.90;;
1811;SDS011;904;47.814;11.134;2024-02-26T11:43:06;3.73;;;1.93;;
1811;SDS011;904;47.814;11.134;2024-02-26T11:48:22;2.97;;;1.50;;
1811;SDS011;904;47.814;11.134;2024-02-26T11:50:51;5.07;;;1.10;;
1811;SDS011;904;47.814;11.134;2024-02-26T11:53:19;3.17;;;1.40;;
1811;SDS011;904;47.814;11.134;2024-02-26T11:55:47;4.00;;;1.37;;
1811;SDS011;904;47.814;11.134;2024-02-26T11:58:14;5.60;;;1.90;;
1811;SDS011;904;47.814;11.134;2024-02-26T12:00:42;3.80;;;1.90;;
1811;SDS011;904;47.814;11.134;2024-02-26T12:03:09;3.13;;;1.37;;
1811;SDS011;904;47.814;11.134;2024-02-26T12:05:38;6.37;;;2.17;;
1811;SDS011;904;47.814;11.134;2024-02-26T12:08:06;3.23;;;1.20;;
1811;SDS011;904;47.814;11.134;2024-02-26T12:10:35;2.70;;;0.90;;
1811;SDS011;904;47.814;11.134;2024-02-26T12:13:04;2.60;;;0.93;;
1811;SDS011;904;47.814;11.134;2024-02-26T12:15:35;2.43;;;0.90;;
1811;SDS011;904;47.814;11.134;2024-02-26T12:18:04;3.23;;;0.90;;
1811;SDS011;904;47.814;11.134;2024-02-26T12:20:33;2.27;;;0.67;;
1811;SDS011;904;47.814;11.134;2024-02-26T12:23:02;2.00;;;0.70;;
1811;SDS011;904;47.814;11.134;2024-02-26T12:25:35;2.70;;;0.70;;
1811;SDS011;904;47.814;11.134;2024-02-26T12:28:09;2.20;;;0.70;;
1811;SDS011;904;47.814;11.134;2024-02-26T12:30:36;1.90;;;0.50;;
1811;SDS011;904;47.814;11.134;2024-02-26T12:33:03;1.80;;;0.50;;
1811;SDS011;904;47.814;11.134;2024-02-26T12:35:31;2.10;;;0.60;;
1811;SDS011;904;47.814;11.134;2024-02-26T12:37:58;2.10;;;0.50;;
1811;SDS011;904;47.814;11.134;2024-02-26T12:40:27;3.40;;;0.50;;
1811;SDS011;904;47.814;11.134;2024-02-26T12:42:54;1.80;;;0.57;;
1811;SDS011;904;47.814;11.134;2024-02-26T12:45:21;2.07;;;0.70;;
1811;SDS011;904;47.814;11.134;2024-02-26T12:47:49;2.30;;;0.60;;
1811;SDS011;904;47.814;11.134;2024-02-26T12:50:16;1.90;;;0.53;;
1811;SDS011;904;47.814;11.134;2024-02-26T12:52:43;3.00;;;0.70;;
1811;SDS011;904;47.814;11.134;2024-02-26T12:55:12;2.37;;;0.60;;
1811;SDS011;904;47.814;11.134;2024-02-26T12:57:42;2.30;;;0.60;;
1811;SDS011;904;47.814;11.134;2024-02-26T13:00:11;2.43;;;0.80;;
1811;SDS011;904;47.814;11.134;2024-02-26T13:02:40;1.77;;;0.53;;
1811;SDS011;904;47.814;11.134;2024-02-26T13:05:09;2.23;;;0.50;;
1811;SDS011;904;47.814;11.134;2024-02-26T13:07:40;1.77;;;0.53;;
1811;SDS011;904;47.814;11.134;2024-02-26T13:10:08;6.07;;;1.30;;
1811;SDS011;904;47.814;11.134;2024-02-26T13:12:36;3.20;;;1.17;;
1811;SDS011;904;47.814;11.134;2024-02-26T13:15:06;2.10;;;0.90;;
1811;SDS011;904;47.814;11.134;2024-02-26T13:17:34;2.27;;;0.80;;
1811;SDS011;904;47.814;11.134;2024-02-26T13:20:00;2.23;;;1.00;;
1811;SDS011;904;47.814;11.134;2024-02-26T13:22:28;2.97;;;0.97;;
1811;SDS011;904;47.814;11.134;2024-02-26T13:24:58;3.50;;;1.57;;
1811;SDS011;904;47.814;11.134;2024-02-26T13:27:28;9.43;;;5.53;;
1811;SDS011;904;47.814;11.134;2024-02-26T13:30:02;11.47;;;4.93;;
1811;SDS011;904;47.814;11.134;2024-02-26T13:32:33;7.80;;;2.70;;
1811;SDS011;904;47.814;11.134;2024-02-26T13:35:04;2.37;;;1.13;;
1811;SDS011;904;47.814;11.134;2024-02-26T13:37:32;3.10;;;1.60;;
1811;SDS011;904;47.814;11.134;2024-02-26T13:39:59;3.33;;;1.67;;
1811;SDS011;904;47.814;11.134;2024-02-26T13:42:29;3.77;;;2.07;;
1811;SDS011;904;47.814;11.134;2024-02-26T13:44:56;5.37;;;2.20;;
1811;SDS011;904;47.814;11.134;2024-02-26T13:47:23;4.73;;;2.03;;
1811;SDS011;904;47.814;11.134;2024-02-26T13:49:51;3.30;;;1.57;;
1811;SDS011;904;47.814;11.134;2024-02-26T13:52:18;2.60;;;1.20;;
1811;SDS011;904;47.814;11.134;2024-02-26T13:54:46;3.53;;;1.10;;
1811;SDS011;904;47.814;11.134;2024-02-26T13:57:13;3.23;;;1.00;;
1811;SDS011;904;47.814;11.134;2024-02-26T13:59:40;2.50;;;0.80;;
1811;SDS011;904;47.814;11.134;2024-02-26T14:02:07;2.80;;;1.13;;
1811;SDS011;904;47.814;11.134;2024-02-26T14:04:34;4.03;;;1.00;;
1811;SDS011;904;47.814;11.134;2024-02-26T14:07:05;2.00;;;0.90;;
1811;SDS011;904;47.814;11.134;2024-02-26T14:09:33;2.37;;;0.67;;
1811;SDS011;904;47.814;11.134;2024-02-26T14:12:04;1.97;;;0.63;;
1811;SDS011;904;47.814;11.134;2024-02-26T14:14:34;1.90;;;0.70;;
1811;SDS011;904;47.814;11.134;2024-02-26T14:17:08;1.70;;;0.60;;
1811;SDS011;904;47.814;11.134;2024-02-26T14:19:35;1.70;;;0.50;;
1811;SDS011;904;47.814;11.134;2024-02-26T14:22:03;1.97;;;0.70;;
1811;SDS011;904;47.814;11.134;2024-02-26T14:24:32;2.37;;;1.23;;
1811;SDS011;904;47.814;11.134;2024-02-26T14:26:59;2.10;;;0.80;;
1811;SDS011;904;47.814;11.134;2024-02-26T14:29:26;2.00;;;0.70;;
1811;SDS011;904;47.814;11.134;2024-02-26T14:31:52;1.80;;;0.67;;
1811;SDS011;904;47.814;11.134;2024-02-26T14:34:21;3.60;;;0.63;;
1811;SDS011;904;47.814;11.134;2024-02-26T14:36:48;2.10;;;0.70;;
1811;SDS011;904;47.814;11.134;2024-02-26T14:39:16;2.13;;;0.87;;
1811;SDS011;904;47.814;11.134;2024-02-26T14:41:43;2.00;;;0.70;;
1811;SDS011;904;47.814;11.134;2024-02-26T14:44:10;2.10;;;0.70;;
1811;SDS011;904;47.814;11.134;2024-02-26T14:46:37;5.60;;;1.00;;
1811;SDS011;904;47.814;11.134;2024-02-26T14:49:04;1.90;;;0.80;;
1811;SDS011;904;47.814;11.134;2024-02-26T14:51:31;2.47;;;0.93;;
1811;SDS011;904;47.814;11.134;2024-02-26T14:53:58;1.90;;;0.70;;
1811;SDS011;904;47.814;11.134;2024-02-26T14:56:28;1.97;;;0.80;;
1811;SDS011;904;47.814;11.134;2024-02-26T14:58:55;3.50;;;1.00;;
1811;SDS011;904;47.814;11.134;2024-02-26T15:01:22;2.27;;;1.23;;
1811;SDS011;904;47.814;11.134;2024-02-26T15:03:50;2.20;;;1.07;;
1811;SDS011;904;47.814;11.134;2024-02-26T15:06:18;1.93;;;0.90;;
1811;SDS011;904;47.814;11.134;2024-02-26T15:08:45;2.30;;;1.10;;
1811;SDS011;904;47.814;11.134;2024-02-26T15:11:13;2.50;;;1.20;;
1811;SDS011;904;47.814;11.134;2024-02-26T15:13:45;1.80;;;0.67;;
1811;SDS011;904;47.814;11.134;2024-02-26T15:16:16;2.10;;;0.83;;
1811;SDS011;904;47.814;11.134;2024-02-26T15:18:44;2.80;;;1.00;;
1811;SDS011;904;47.814;11.134;2024-02-26T15:21:11;2.23;;;0.97;;